Time;durP1;ratioP1;P1;durP2;ratioP2;P2;SDS_P1;SDS_P2;PMS_P1;PMS_P2;Temp;Humidity;BMP_temperature;BMP_pressure;BME280_temperature;BME280_humidity;BME280_pressure;Samples;Min_cycle;Max_cycle;Signal;HPM_P1;HPM_P2
2023/04/11 00:01:18;;;;;;;4.40;2.92;;;23.10;50.40;;;;;;6125617;28;81944;-69
2023/04/11 00:04:19;;;;;;;3.65;3.08;;;23.10;50.60;;;;;;6111479;28;82586;-73
2023/04/11 00:07:20;;;;;;;3.03;2.50;;;23.10;50.40;;;;;;6129000;28;80176;-72
2023/04/11 00:10:20;;;;;;;4.68;2.80;;;23.10;50.20;;;;;;6128379;28;81369;-72
2023/04/11 00:13:22;;;;;;;4.30;3.03;;;23.10;50.10;;;;;;6129092;28;80466;-72
2023/04/11 00:16:23;;;;;;;4.28;2.83;;;23.10;50.10;;;;;;6116834;28;85627;-71
2023/04/11 00:19:24;;;;;;;4.15;2.60;;;23.10;50.10;;;;;;6128310;28;80348;-72
2023/04/11 00:22:26;;;;;;;3.50;2.63;;;23.10;50.10;;;;;;6127402;28;80823;-71
2023/04/11 00:25:28;;;;;;;3.55;2.60;;;23.10;50.00;;;;;;6125113;28;80264;-70
2023/04/11 00:28:29;;;;;;;5.13;3.33;;;23.10;50.00;;;;;;6127700;28;80752;-72
2023/04/11 00:31:29;;;;;;;4.13;2.95;;;23.10;50.00;;;;;;6127180;28;83794;-73
2023/04/11 00:34:30;;;;;;;3.92;2.60;;;23.10;49.90;;;;;;6127410;28;82163;-73
2023/04/11 00:37:34;;;;;;;5.30;3.65;;;23.10;50.00;;;;;;6128185;28;83383;-73
2023/04/11 00:40:35;;;;;;;4.40;2.85;;;23.10;49.90;;;;;;6131471;28;80349;-69
2023/04/11 00:43:35;;;;;;;5.22;3.05;;;23.10;49.80;;;;;;6128338;28;80684;-69
2023/04/11 00:46:36;;;;;;;4.05;2.97;;;23.10;49.90;;;;;;6127434;28;82481;-69
2023/04/11 00:49:37;;;;;;;5.05;3.28;;;23.10;50.00;;;;;;6125544;28;83667;-69
2023/04/11 00:52:37;;;;;;;3.72;2.83;;;23.10;49.70;;;;;;6127213;28;80516;-69
2023/04/11 00:55:38;;;;;;;4.65;3.40;;;23.10;49.90;;;;;;6129895;28;80993;-70
2023/04/11 00:58:38;;;;;;;3.50;2.75;;;23.10;49.90;;;;;;6126323;28;81888;-68
2023/04/11 01:01:40;;;;;;;3.38;3.03;;;23.10;49.80;;;;;;6143581;28;82880;-66
2023/04/11 01:04:42;;;;;;;3.70;3.17;;;23.10;49.70;;;;;;6155763;28;83010;-67
2023/04/11 01:07:42;;;;;;;3.92;3.00;;;23.10;49.60;;;;;;6153320;28;83588;-68
2023/04/11 01:10:43;;;;;;;3.78;2.83;;;23.10;49.60;;;;;;6155635;28;80488;-69
2023/04/11 01:13:43;;;;;;;5.45;3.10;;;23.10;49.50;;;;;;6155089;28;80653;-59
2023/04/11 01:16:46;;;;;;;3.88;3.00;;;23.10;49.40;;;;;;6137612;28;87394;-60
2023/04/11 01:19:46;;;;;;;6.05;3.47;;;23.10;49.50;;;;;;6150013;28;81548;-60
2023/04/11 01:22:48;;;;;;;3.20;2.83;;;23.10;49.40;;;;;;6155521;28;80436;-59
2023/04/11 01:25:48;;;;;;;3.60;2.78;;;23.10;49.60;;;;;;6154366;28;80320;-61
2023/04/11 01:28:49;;;;;;;4.65;3.33;;;23.00;49.50;;;;;;6145698;28;81728;-61
2023/04/11 01:31:49;;;;;;;4.25;3.05;;;23.00;50.10;;;;;;6125714;28;83311;-69
2023/04/11 01:34:50;;;;;;;3.65;3.00;;;23.00;49.60;;;;;;6151078;28;81294;-65
2023/04/11 01:37:50;;;;;;;4.03;2.88;;;23.00;50.30;;;;;;6153532;28;83390;-66
2023/04/11 01:40:51;;;;;;;3.33;2.63;;;23.00;49.60;;;;;;6153042;28;83332;-65
2023/04/11 01:43:52;;;;;;;5.43;3.17;;;23.00;49.70;;;;;;6155241;28;80606;-66
2023/04/11 01:46:52;;;;;;;2.97;2.47;;;23.00;49.60;;;;;;6154755;28;80421;-67
2023/04/11 01:49:54;;;;;;;3.33;2.47;;;23.00;49.70;;;;;;6155177;28;81504;-61
2023/04/11 01:52:55;;;;;;;4.72;3.20;;;23.00;49.60;;;;;;6154597;28;80751;-61
2023/04/11 01:55:56;;;;;;;4.22;3.05;;;23.00;49.60;;;;;;6145422;28;83112;-60
2023/04/11 01:58:57;;;;;;;3.67;2.72;;;23.00;49.50;;;;;;6125338;28;83430;-60
2023/04/11 02:01:58;;;;;;;3.72;2.92;;;23.00;49.50;;;;;;6129385;28;83369;-60
2023/04/11 02:04:59;;;;;;;3.53;2.72;;;23.00;49.50;;;;;;6150413;28;80120;-60
2023/04/11 02:08:00;;;;;;;3.45;2.67;;;23.00;49.50;;;;;;6154953;28;80748;-60
2023/04/11 02:11:00;;;;;;;3.70;2.50;;;23.00;49.40;;;;;;6153139;28;83293;-60
2023/04/11 02:14:01;;;;;;;3.28;2.65;;;23.00;49.30;;;;;;6152999;28;82931;-59
2023/04/11 02:17:03;;;;;;;3.28;2.38;;;23.00;49.30;;;;;;6154521;28;80205;-60
2023/04/11 02:20:05;;;;;;;4.10;2.90;;;23.00;49.20;;;;;;6153928;28;80362;-60
2023/04/11 02:23:06;;;;;;;4.40;2.90;;;23.00;49.00;;;;;;6155479;28;82672;-61
2023/04/11 02:26:06;;;;;;;3.75;2.55;;;23.00;49.10;;;;;;6153878;28;81785;-59
2023/04/11 02:29:07;;;;;;;3.78;2.53;;;23.00;49.10;;;;;;6154602;28;80638;-69
2023/04/11 02:32:07;;;;;;;2.95;2.25;;;23.00;49.10;;;;;;6144775;28;83024;-68
2023/04/11 02:35:08;;;;;;;3.13;2.50;;;23.00;49.00;;;;;;6151458;28;80451;-68
2023/04/11 02:38:08;;;;;;;4.40;2.80;;;23.00;49.00;;;;;;6153892;28;80683;-67
2023/04/11 02:41:09;;;;;;;2.78;2.38;;;23.00;48.80;;;;;;6155094;28;80711;-68
2023/04/11 02:44:10;;;;;;;3.33;2.40;;;23.00;49.10;;;;;;6156154;28;80884;-67
2023/04/11 02:47:11;;;;;;;4.85;2.90;;;23.00;48.80;;;;;;6138811;28;83451;-59
2023/04/11 02:50:11;;;;;;;3.50;2.90;;;23.00;48.80;;;;;;6152285;28;83566;-59
2023/04/11 02:53:17;;;;;;;4.20;2.85;;;23.00;48.80;;;;;;6151343;28;83539;-59
2023/04/11 02:56:22;;;;;;;4.45;2.90;;;23.00;48.60;;;;;;6144708;28;83067;-60
2023/04/11 02:59:27;;;;;;;3.83;2.72;;;23.00;48.60;;;;;;6124385;28;83304;-59
2023/04/11 03:02:28;;;;;;;2.95;2.65;;;23.00;48.60;;;;;;6151123;28;81423;-60
2023/04/11 03:05:30;;;;;;;3.22;2.70;;;23.00;48.50;;;;;;6124492;28;87387;-61
2023/04/11 03:08:31;;;;;;;4.25;3.00;;;23.00;48.50;;;;;;6152810;28;83468;-62
2023/04/11 03:11:32;;;;;;;3.70;2.70;;;23.00;48.70;;;;;;6153199;28;80994;-62
2023/04/11 03:14:33;;;;;;;3.22;2.70;;;23.00;48.50;;;;;;6150094;28;82232;-62
2023/04/11 03:17:34;;;;;;;3.10;2.55;;;23.00;48.20;;;;;;6150510;28;80511;-62
2023/04/11 03:20:35;;;;;;;6.30;2.95;;;23.00;47.80;;;;;;6121196;28;82998;-62
2023/04/11 03:23:36;;;;;;;4.32;3.72;;;23.00;47.60;;;;;;6122966;28;83405;-69
2023/04/11 03:26:37;;;;;;;4.82;3.75;;;23.00;47.40;;;;;;6126904;28;83248;-68
2023/04/11 03:29:43;;;;;;;5.05;3.38;;;23.10;47.30;;;;;;6113452;28;82891;-68
2023/04/11 03:32:51;;;;;;;6.22;4.72;;;23.10;47.10;;;;;;6127991;28;81990;-68
2023/04/11 03:35:52;;;;;;;5.50;3.45;;;23.10;47.10;;;;;;6146335;28;83665;-68
2023/04/11 03:38:52;;;;;;;4.72;3.42;;;23.20;46.90;;;;;;6151647;28;83519;-67
2023/04/11 03:41:53;;;;;;;5.15;3.75;;;23.20;46.80;;;;;;6151025;28;80900;-68
2023/04/11 03:44:54;;;;;;;5.63;3.90;;;23.20;46.60;;;;;;6151549;28;81662;-68
2023/04/11 03:47:54;;;;;;;5.82;3.22;;;23.30;46.50;;;;;;6149259;28;83248;-70
2023/04/11 03:50:59;;;;;;;6.20;3.42;;;23.30;46.50;;;;;;6148636;28;83504;-66
2023/04/11 03:54:09;;;;;;;4.30;3.35;;;23.30;47.00;;;;;;6150668;28;83410;-68
2023/04/11 03:57:13;;;;;;;5.20;3.20;;;23.30;46.00;;;;;;6151706;28;83605;-66
2023/04/11 04:00:13;;;;;;;4.05;3.17;;;23.40;46.10;;;;;;6146751;28;82413;-60
2023/04/11 04:03:25;;;;;;;4.43;3.33;;;23.40;45.90;;;;;;6142476;28;80260;-60
2023/04/11 04:06:27;;;;;;;5.00;3.33;;;23.40;45.70;;;;;;6150655;28;83198;-58
2023/04/11 04:09:28;;;;;;;5.97;3.40;;;23.40;45.40;;;;;;6150609;28;80672;-59
2023/04/11 04:12:29;;;;;;;5.63;3.20;;;23.40;45.30;;;;;;6143160;28;83260;-64
2023/04/11 04:15:52;;;;;;;7.95;3.85;;;23.50;45.20;;;;;;6145273;28;82772;-60
2023/04/11 04:18:57;;;;;;;6.83;4.03;;;23.50;45.30;;;;;;6135772;28;82567;-61
2023/04/11 04:21:59;;;;;;;5.45;3.58;;;23.50;45.20;;;;;;6137577;28;83539;-65
2023/04/11 04:25:04;;;;;;;8.52;4.03;;;23.50;45.40;;;;;;6137443;28;80685;-59
2023/04/11 04:28:08;;;;;;;7.07;4.55;;;23.50;45.50;;;;;;6142303;28;82688;-67
2023/04/11 04:31:14;;;;;;;9.23;4.30;;;23.50;45.50;;;;;;6136801;28;83441;-67
2023/04/11 04:34:20;;;;;;;7.18;4.40;;;23.50;45.30;;;;;;6142860;28;83340;-68
2023/04/11 04:37:22;;;;;;;12.90;4.68;;;23.50;45.30;;;;;;6131335;28;83411;-63
2023/04/11 04:40:30;;;;;;;9.65;4.78;;;23.50;45.10;;;;;;6136601;28;83344;-63
2023/04/11 04:43:35;;;;;;;8.20;5.00;;;23.50;44.90;;;;;;6145538;28;82722;-64
2023/04/11 04:46:53;;;;;;;8.40;4.30;;;23.50;44.60;;;;;;6144311;28;87462;-65
2023/04/11 04:49:55;;;;;;;6.60;4.22;;;23.50;44.50;;;;;;6147368;28;83879;-63
2023/04/11 04:52:56;;;;;;;6.45;4.50;;;23.50;44.30;;;;;;6146708;28;82027;-61
2023/04/11 04:55:57;;;;;;;6.40;4.40;;;23.60;44.30;;;;;;6145798;28;83047;-66
2023/04/11 04:58:59;;;;;;;8.98;3.95;;;23.50;44.60;;;;;;6140750;28;81380;-60
2023/04/11 05:02:02;;;;;;;6.53;4.30;;;23.60;44.90;;;;;;6160309;28;85193;-69
2023/04/11 05:05:03;;;;;;;7.90;4.47;;;23.50;44.70;;;;;;6144639;28;81859;-64
2023/04/11 05:08:04;;;;;;;7.22;4.55;;;23.50;44.70;;;;;;6132032;28;83945;-68
2023/04/11 05:11:07;;;;;;;8.75;4.97;;;23.50;44.70;;;;;;6134926;28;83283;-69
2023/04/11 05:14:08;;;;;;;7.35;4.68;;;23.50;45.00;;;;;;6122509;28;82773;-63
2023/04/11 05:17:09;;;;;;;8.55;4.93;;;23.50;45.30;;;;;;6135365;28;85476;-58
2023/04/11 05:20:10;;;;;;;10.48;4.72;;;23.50;46.00;;;;;;6109153;28;81355;-70
2023/04/11 05:23:11;;;;;;;8.18;4.93;;;23.50;46.00;;;;;;6124658;28;83357;-60
2023/04/11 05:26:11;;;;;;;9.13;5.57;;;23.50;46.40;;;;;;6140842;28;83750;-62
2023/04/11 05:29:14;;;;;;;8.75;5.55;;;23.50;46.40;;;;;;6141082;28;82589;-62
2023/04/11 05:32:14;;;;;;;11.27;6.88;;;23.40;46.80;;;;;;6146691;28;82112;-50
2023/04/11 05:35:16;;;;;;;10.27;5.85;;;23.40;47.10;;;;;;6139320;28;81597;-58
2023/04/11 05:38:21;;;;;;;8.30;5.97;;;23.40;46.60;;;;;;6138115;28;82282;-56
2023/04/11 05:41:21;;;;;;;9.95;6.18;;;23.40;46.20;;;;;;6078194;28;82792;-62
2023/04/11 05:44:22;;;;;;;11.98;6.60;;;23.30;45.80;;;;;;6148593;28;80188;-60
2023/04/11 05:47:22;;;;;;;9.38;5.93;;;23.30;45.70;;;;;;6147996;28;80729;-59
2023/04/11 05:50:23;;;;;;;6.85;5.63;;;23.30;45.70;;;;;;6125649;28;82658;-65
2023/04/11 05:53:23;;;;;;;8.13;5.70;;;23.30;45.20;;;;;;6146539;28;81919;-64
2023/04/11 05:56:25;;;;;;;8.25;5.45;;;23.30;45.10;;;;;;6139503;28;83256;-66
2023/04/11 05:59:27;;;;;;;6.78;5.07;;;23.30;45.30;;;;;;6122542;28;81654;-60
2023/04/11 06:02:27;;;;;;;12.15;5.68;;;23.30;45.30;;;;;;6118883;28;80450;-69
2023/04/11 06:05:30;;;;;;;13.30;5.22;;;23.20;45.40;;;;;;6145134;28;80997;-70
2023/04/11 06:08:30;;;;;;;11.38;5.00;;;23.30;45.50;;;;;;6148707;28;85033;-63
2023/04/11 06:11:31;;;;;;;13.45;5.18;;;23.30;45.70;;;;;;6145914;28;80421;-63
2023/04/11 06:14:31;;;;;;;9.95;5.38;;;23.30;45.50;;;;;;6148040;28;82371;-62
2023/04/11 06:17:32;;;;;;;8.57;5.10;;;23.30;45.40;;;;;;6146892;28;80589;-62
2023/04/11 06:20:32;;;;;;;12.77;5.32;;;23.30;45.40;;;;;;6147245;28;81925;-63
2023/04/11 06:23:33;;;;;;;11.15;5.13;;;23.30;45.10;;;;;;6143019;28;82689;-62
2023/04/11 06:26:33;;;;;;;6.45;4.68;;;23.30;45.20;;;;;;6111837;28;88003;-63
2023/04/11 06:29:34;;;;;;;15.73;5.68;;;23.30;45.30;;;;;;6118080;28;81447;-63
2023/04/11 06:32:34;;;;;;;6.25;4.32;;;23.30;45.30;;;;;;6130626;28;80502;-61
2023/04/11 06:35:35;;;;;;;9.98;4.40;;;23.30;45.30;;;;;;6148387;28;80567;-63
2023/04/11 06:38:36;;;;;;;8.55;5.25;;;23.30;45.30;;;;;;6138976;28;85388;-63
2023/04/11 06:41:37;;;;;;;9.05;4.57;;;23.30;45.30;;;;;;6108836;28;80981;-60
2023/04/11 06:44:38;;;;;;;6.78;4.50;;;23.30;45.20;;;;;;6111198;28;83849;-62
2023/04/11 06:47:38;;;;;;;7.10;4.70;;;23.40;45.40;;;;;;6144380;28;83585;-62
2023/04/11 06:50:39;;;;;;;6.38;5.05;;;23.40;45.50;;;;;;6143101;28;80318;-63
2023/04/11 06:53:40;;;;;;;12.25;5.05;;;23.40;45.30;;;;;;6144062;28;80849;-62
2023/04/11 06:56:41;;;;;;;8.48;5.82;;;23.30;45.20;;;;;;6126336;28;83663;-62
2023/04/11 06:59:41;;;;;;;12.23;5.40;;;23.30;45.10;;;;;;6143309;28;80329;-61
2023/04/11 07:02:43;;;;;;;8.63;5.05;;;23.30;45.60;;;;;;6146452;28;83155;-63
2023/04/11 07:05:44;;;;;;;6.85;4.95;;;23.30;45.60;;;;;;6148759;28;81820;-64
2023/04/11 07:08:44;;;;;;;7.03;4.97;;;23.40;45.40;;;;;;6148389;28;81602;-62
2023/04/11 07:11:45;;;;;;;13.02;5.30;;;23.40;45.40;;;;;;6142536;28;80990;-66
2023/04/11 07:14:45;;;;;;;11.02;5.75;;;23.30;45.20;;;;;;6125561;28;80668;-65
2023/04/11 07:17:46;;;;;;;8.50;5.20;;;23.30;45.30;;;;;;6121354;28;80792;-64
2023/04/11 07:20:47;;;;;;;9.18;5.28;;;23.30;45.20;;;;;;6137614;28;83147;-65
2023/04/11 07:23:48;;;;;;;8.32;5.32;;;23.30;45.40;;;;;;6124300;28;80739;-60
2023/04/11 07:26:50;;;;;;;8.38;5.47;;;23.30;45.30;;;;;;6124915;28;80521;-61
2023/04/11 07:29:51;;;;;;;11.82;5.28;;;23.30;45.40;;;;;;6121958;28;82927;-61
2023/04/11 07:32:51;;;;;;;6.13;5.03;;;23.40;45.40;;;;;;6122855;28;80867;-62
2023/04/11 07:35:52;;;;;;;9.93;4.93;;;23.40;45.70;;;;;;6136662;28;80876;-61
2023/04/11 07:38:52;;;;;;;9.20;4.63;;;23.50;45.80;;;;;;6145300;28;82834;-67
2023/04/11 07:41:53;;;;;;;9.77;4.85;;;23.50;46.00;;;;;;6145637;28;82745;-60
2023/04/11 07:44:54;;;;;;;8.02;4.80;;;23.50;46.00;;;;;;6142892;28;80074;-61
2023/04/11 07:47:54;;;;;;;6.95;4.35;;;23.60;46.10;;;;;;6144243;28;83148;-61
2023/04/11 07:50:55;;;;;;;5.65;4.07;;;23.60;45.90;;;;;;6148056;28;80269;-60
2023/04/11 07:53:55;;;;;;;6.85;5.15;;;23.60;46.10;;;;;;6141201;28;81999;-58
2023/04/11 07:56:56;;;;;;;6.72;4.35;;;23.60;47.70;;;;;;6145891;28;81099;-60
2023/04/11 07:59:56;;;;;;;8.13;4.40;;;23.60;47.20;;;;;;6119163;28;82325;-61
2023/04/11 08:02:58;;;;;;;6.07;4.65;;;23.60;46.90;;;;;;6148248;28;81324;-61
2023/04/11 08:05:58;;;;;;;5.95;4.32;;;23.60;47.00;;;;;;6146453;28;80766;-63
2023/04/11 08:08:59;;;;;;;6.05;4.25;;;23.50;47.20;;;;;;6119673;28;80757;-62
2023/04/11 08:12:00;;;;;;;6.35;4.43;;;23.60;47.30;;;;;;6126255;28;80533;-62
2023/04/11 08:15:01;;;;;;;7.18;5.03;;;23.50;47.50;;;;;;6150440;28;81934;-63
2023/04/11 08:18:01;;;;;;;6.47;4.20;;;23.60;47.50;;;;;;6140200;28;81901;-65
2023/04/11 08:21:02;;;;;;;6.45;4.47;;;23.60;47.60;;;;;;6131422;28;80547;-67
2023/04/11 08:24:02;;;;;;;6.32;4.18;;;23.60;47.70;;;;;;6136181;28;81466;-68
2023/04/11 08:27:03;;;;;;;10.85;4.15;;;23.60;47.70;;;;;;6137471;28;82643;-66
2023/04/11 08:30:04;;;;;;;6.50;4.50;;;23.60;47.60;;;;;;6138565;28;81311;-66
2023/04/11 08:33:06;;;;;;;6.80;4.75;;;23.60;47.70;;;;;;6148832;28;83546;-68
2023/04/11 08:36:08;;;;;;;7.88;4.40;;;23.60;47.80;;;;;;6136213;28;82942;-65
2023/04/11 08:39:09;;;;;;;7.70;4.47;;;23.60;47.80;;;;;;6132256;28;81072;-68
2023/04/11 08:42:10;;;;;;;9.88;4.30;;;23.60;47.90;;;;;;6127679;28;81356;-66
2023/04/11 08:45:11;;;;;;;8.23;4.10;;;23.70;48.00;;;;;;6126759;28;80976;-66
2023/04/11 08:48:11;;;;;;;6.55;4.15;;;23.70;48.00;;;;;;6126942;28;80092;-67
2023/04/11 08:51:13;;;;;;;7.78;3.83;;;23.70;48.00;;;;;;6147433;28;80400;-67
2023/04/11 08:54:14;;;;;;;4.90;3.75;;;23.70;48.00;;;;;;6145523;28;80547;-64
2023/04/11 08:57:15;;;;;;;6.43;4.13;;;23.70;48.00;;;;;;6146935;28;85893;-64
2023/04/11 09:00:17;;;;;;;6.53;4.20;;;23.70;48.10;;;;;;6143958;28;80286;-64
2023/04/11 09:03:18;;;;;;;6.07;4.07;;;23.80;48.10;;;;;;6151441;28;80361;-62
2023/04/11 09:06:18;;;;;;;5.47;3.78;;;23.80;48.10;;;;;;6148657;28;82258;-62
2023/04/11 09:09:19;;;;;;;7.97;4.05;;;23.80;48.10;;;;;;6151178;28;81593;-64
2023/04/11 09:12:19;;;;;;;6.10;4.22;;;23.80;48.10;;;;;;6147408;28;82798;-66
2023/04/11 09:15:20;;;;;;;6.50;4.22;;;23.80;48.10;;;;;;6150565;28;80061;-64
2023/04/11 09:18:20;;;;;;;5.72;4.05;;;23.80;48.00;;;;;;6153188;28;80534;-64
2023/04/11 09:21:21;;;;;;;5.57;3.75;;;23.90;48.10;;;;;;6130521;28;85194;-65
2023/04/11 09:24:22;;;;;;;5.07;3.80;;;23.90;48.00;;;;;;6148923;28;83046;-64
2023/04/11 09:27:25;;;;;;;7.03;4.13;;;24.00;47.90;;;;;;6148273;28;86410;-64
2023/04/11 09:30:25;;;;;;;8.63;3.80;;;24.00;47.80;;;;;;6154596;28;80786;-65
2023/04/11 09:33:30;;;;;;;6.78;3.85;;;24.00;47.90;;;;;;6151281;28;83904;-64
2023/04/11 09:36:30;;;;;;;9.73;3.85;;;24.00;47.70;;;;;;6145373;28;82403;-65
2023/04/11 09:39:31;;;;;;;7.07;3.67;;;24.00;47.70;;;;;;6155321;28;80496;-65
2023/04/11 09:42:33;;;;;;;7.95;4.07;;;24.00;47.60;;;;;;6152310;28;82312;-64
2023/04/11 09:45:34;;;;;;;10.43;4.28;;;24.00;47.50;;;;;;6136024;28;81308;-63
2023/04/11 09:48:34;;;;;;;10.05;3.53;;;24.00;47.40;;;;;;6123873;28;83405;-61
2023/04/11 09:51:35;;;;;;;6.20;3.92;;;24.00;47.30;;;;;;6120456;28;80589;-59
2023/04/11 09:54:35;;;;;;;6.63;3.40;;;24.00;47.10;;;;;;6121523;28;84474;-63
2023/04/11 09:57:36;;;;;;;9.30;3.50;;;24.10;46.70;;;;;;6121952;28;81618;-59
2023/04/11 10:00:37;;;;;;;10.75;3.70;;;24.10;46.10;;;;;;6143250;28;81262;-60
2023/04/11 10:03:38;;;;;;;9.93;3.33;;;24.10;45.60;;;;;;6147461;28;83386;-65
2023/04/11 10:06:39;;;;;;;6.68;3.17;;;24.00;45.70;;;;;;6151992;28;80439;-69
2023/04/11 10:09:39;;;;;;;4.72;3.38;;;24.10;45.60;;;;;;6148288;28;83284;-61
2023/04/11 10:12:40;;;;;;;5.18;3.13;;;24.00;45.30;;;;;;6149264;28;85014;-61
2023/04/11 10:15:41;;;;;;;8.15;2.80;;;24.10;45.20;;;;;;6150772;28;80586;-61
2023/04/11 10:18:42;;;;;;;7.72;3.38;;;24.10;44.90;;;;;;6138219;28;81016;-61
2023/04/11 10:21:42;;;;;;;5.90;3.03;;;24.10;45.00;;;;;;6146538;28;81382;-61
2023/04/11 10:24:43;;;;;;;8.93;3.58;;;24.10;45.40;;;;;;6149529;28;82412;-65
2023/04/11 10:27:43;;;;;;;8.80;3.42;;;24.10;45.20;;;;;;6146777;28;84114;-67
2023/04/11 10:30:44;;;;;;;8.80;3.65;;;24.10;45.30;;;;;;6139655;28;80740;-64
2023/04/11 10:33:44;;;;;;;3.65;3.20;;;24.10;44.70;;;;;;6118859;28;80931;-68
2023/04/11 10:36:45;;;;;;;5.90;3.25;;;24.10;44.80;;;;;;6115078;28;82805;-62
2023/04/11 10:39:46;;;;;;;12.80;3.03;;;24.10;44.70;;;;;;6134337;28;80844;-65
2023/04/11 10:42:46;;;;;;;8.25;3.72;;;24.10;44.80;;;;;;6148510;28;80834;-66
2023/04/11 10:45:47;;;;;;;4.38;2.90;;;24.10;44.60;;;;;;6142508;28;81419;-61
2023/04/11 10:48:47;;;;;;;6.43;3.15;;;24.10;44.60;;;;;;6142839;28;83629;-63
2023/04/11 10:51:48;;;;;;;8.50;2.75;;;24.10;44.60;;;;;;6145430;28;80515;-63
2023/04/11 10:54:48;;;;;;;5.88;2.83;;;24.10;44.60;;;;;;6150493;28;81699;-72
2023/04/11 10:57:49;;;;;;;5.47;2.50;;;24.10;44.70;;;;;;6144654;28;81812;-66
2023/04/11 11:00:52;;;;;;;6.47;3.08;;;24.10;44.90;;;;;;6144591;28;84046;-63
2023/04/11 11:03:53;;;;;;;4.70;3.10;;;24.10;45.00;;;;;;6145216;28;80515;-59
2023/04/11 11:06:53;;;;;;;9.45;3.08;;;24.10;45.40;;;;;;6150337;28;81887;-61
2023/04/11 11:09:54;;;;;;;5.22;2.88;;;24.10;45.20;;;;;;6135775;28;82814;-62
2023/04/11 11:12:55;;;;;;;6.63;3.35;;;24.10;45.20;;;;;;6134960;28;80409;-60
2023/04/11 11:15:55;;;;;;;7.85;2.95;;;24.10;45.10;;;;;;6146227;28;86445;-66
2023/04/11 11:18:58;;;;;;;5.50;2.95;;;24.10;45.10;;;;;;6143831;28;80148;-63
2023/04/11 11:22:05;;;;;;;4.15;3.03;;;24.10;45.20;;;;;;6151982;28;81511;-67
2023/04/11 11:25:06;;;;;;;7.72;3.00;;;24.10;45.40;;;;;;6148901;28;82981;-69
2023/04/11 11:28:06;;;;;;;5.22;3.30;;;24.10;45.50;;;;;;6150310;28;80506;-67
2023/04/11 11:31:07;;;;;;;8.20;3.03;;;24.00;45.50;;;;;;6139838;28;80961;-67
2023/04/11 11:34:07;;;;;;;8.55;3.05;;;24.10;45.80;;;;;;6138847;28;80920;-62
2023/04/11 11:37:08;;;;;;;7.40;3.05;;;24.10;45.80;;;;;;6135241;28;80583;-65
2023/04/11 11:40:11;;;;;;;5.65;2.78;;;24.00;46.00;;;;;;6136385;28;81079;-72
2023/04/11 11:43:12;;;;;;;3.38;2.50;;;24.10;45.80;;;;;;6148165;28;80343;-65
2023/04/11 11:46:16;;;;;;;5.50;3.30;;;24.10;45.90;;;;;;6149058;28;84010;-63
2023/04/11 11:49:16;;;;;;;4.30;3.00;;;24.20;46.10;;;;;;6149275;28;86470;-69
2023/04/11 11:52:17;;;;;;;4.93;2.95;;;24.20;46.20;;;;;;6150329;28;81446;-68
2023/04/11 11:55:17;;;;;;;11.18;3.40;;;24.20;46.10;;;;;;6143378;28;81686;-63
2023/04/11 11:58:18;;;;;;;9.93;3.17;;;24.20;46.40;;;;;;6146096;28;81980;-63
2023/04/11 12:01:19;;;;;;;7.45;3.63;;;24.20;46.30;;;;;;6145854;28;80980;-65
2023/04/11 12:04:19;;;;;;;6.22;3.05;;;24.20;46.40;;;;;;6143912;28;82939;-63
2023/04/11 12:07:21;;;;;;;5.97;2.50;;;24.20;46.20;;;;;;6148211;28;80647;-66
2023/04/11 12:10:21;;;;;;;3.97;2.80;;;24.20;46.20;;;;;;6146172;28;80872;-64
2023/04/11 12:13:22;;;;;;;5.53;3.70;;;24.20;45.90;;;;;;6145331;28;85557;-66
2023/04/11 12:16:23;;;;;;;9.82;3.60;;;24.20;45.60;;;;;;6146135;28;80360;-61
2023/04/11 12:19:23;;;;;;;8.90;3.10;;;24.20;45.70;;;;;;6123305;28;81611;-63
2023/04/11 12:22:24;;;;;;;4.35;3.20;;;24.30;45.70;;;;;;6134863;28;80890;-59
2023/04/11 12:25:26;;;;;;;5.97;3.13;;;24.20;45.50;;;;;;6145876;28;80584;-60
2023/04/11 12:28:26;;;;;;;8.05;2.60;;;24.30;46.80;;;;;;6143601;28;80759;-62
2023/04/11 12:31:27;;;;;;;11.50;3.10;;;24.30;46.30;;;;;;6149536;28;80300;-63
2023/04/11 12:34:27;;;;;;;11.07;3.20;;;24.30;46.40;;;;;;6148442;28;80198;-61
2023/04/11 12:37:28;;;;;;;11.48;3.67;;;24.20;46.10;;;;;;6148176;28;83240;-63
2023/04/11 12:40:28;;;;;;;6.35;2.92;;;24.30;45.80;;;;;;6146796;28;86226;-60
2023/04/11 12:43:29;;;;;;;12.13;3.53;;;24.30;45.30;;;;;;6147995;28;85397;-65
2023/04/11 12:46:29;;;;;;;7.70;3.42;;;24.30;45.10;;;;;;6143739;28;81260;-62
2023/04/11 12:49:30;;;;;;;4.60;3.55;;;24.40;45.30;;;;;;6130404;28;80485;-63
2023/04/11 12:52:30;;;;;;;12.80;2.95;;;24.40;45.30;;;;;;6108159;28;81615;-64
2023/04/11 12:55:32;;;;;;;12.70;3.33;;;24.40;45.40;;;;;;6122013;28;80909;-64
2023/04/11 12:58:33;;;;;;;5.53;3.17;;;24.30;45.60;;;;;;6139964;28;80657;-66
2023/04/11 13:01:33;;;;;;;8.95;3.15;;;24.30;45.30;;;;;;6146679;28;82217;-69
2023/04/11 13:04:34;;;;;;;4.75;2.95;;;24.30;45.50;;;;;;6148256;28;82056;-68
2023/04/11 13:07:35;;;;;;;5.70;2.83;;;24.20;44.80;;;;;;6146614;28;80784;-61
2023/04/11 13:10:35;;;;;;;7.70;3.22;;;24.20;45.20;;;;;;6145750;28;80656;-60
2023/04/11 13:13:36;;;;;;;4.82;2.80;;;24.10;44.30;;;;;;6145116;28;80100;-61
2023/04/11 13:16:36;;;;;;;4.78;3.15;;;24.10;44.40;;;;;;6145182;28;80697;-59
2023/04/11 13:19:37;;;;;;;5.28;3.28;;;24.10;44.20;;;;;;6145644;28;82342;-61
2023/04/11 13:22:37;;;;;;;6.13;3.30;;;24.10;44.00;;;;;;6145788;28;81038;-60
2023/04/11 13:25:38;;;;;;;8.38;3.28;;;24.10;44.00;;;;;;6143487;28;81995;-61
2023/04/11 13:28:38;;;;;;;16.50;4.20;;;24.10;44.10;;;;;;6145856;28;81960;-63
2023/04/11 13:31:39;;;;;;;7.03;3.25;;;24.10;44.10;;;;;;6147048;28;81172;-57
2023/04/11 13:34:39;;;;;;;8.55;3.58;;;24.10;43.60;;;;;;6147282;28;80465;-62
2023/04/11 13:37:40;;;;;;;16.40;4.05;;;24.10;43.30;;;;;;6147578;28;81772;-64
2023/04/11 13:40:41;;;;;;;7.57;3.40;;;24.10;43.40;;;;;;6145787;28;83055;-58
2023/04/11 13:43:42;;;;;;;12.60;3.05;;;24.20;43.50;;;;;;6148231;28;81027;-61
2023/04/11 13:46:42;;;;;;;8.23;3.60;;;24.10;44.10;;;;;;6144738;28;80400;-59
2023/04/11 13:49:43;;;;;;;8.35;3.58;;;24.20;43.50;;;;;;6142369;28;81246;-60
2023/04/11 13:52:43;;;;;;;5.40;3.05;;;24.10;43.30;;;;;;6145707;28;84955;-59
2023/04/11 13:55:46;;;;;;;6.40;3.53;;;24.20;43.30;;;;;;6146341;28;82481;-60
2023/04/11 13:58:47;;;;;;;6.57;3.38;;;24.10;42.40;;;;;;6145939;28;80294;-61
2023/04/11 14:01:48;;;;;;;7.20;3.22;;;23.90;42.80;;;;;;6146476;28;81408;-60
2023/04/11 14:04:48;;;;;;;5.25;3.33;;;23.90;43.40;;;;;;6148616;28;80493;-61
2023/04/11 14:07:49;;;;;;;6.72;3.60;;;24.00;43.10;;;;;;6146178;28;80907;-59
2023/04/11 14:10:49;;;;;;;4.70;3.35;;;23.90;42.30;;;;;;6148387;28;80251;-59
2023/04/11 14:13:50;;;;;;;7.38;3.33;;;23.80;42.60;;;;;;6149882;28;80953;-60
2023/04/11 14:16:50;;;;;;;5.45;3.47;;;23.80;42.40;;;;;;6148856;28;80460;-59
2023/04/11 14:19:51;;;;;;;5.30;3.80;;;23.80;42.50;;;;;;6150385;28;80831;-61
2023/04/11 14:22:51;;;;;;;18.85;4.22;;;23.70;41.80;;;;;;6148202;28;79995;-61
2023/04/11 14:25:52;;;;;;;7.75;3.28;;;23.60;41.80;;;;;;6148856;28;81088;-56
2023/04/11 14:28:52;;;;;;;12.43;4.10;;;23.60;41.40;;;;;;6127945;28;81244;-58
2023/04/11 14:31:53;;;;;;;9.88;4.30;;;23.60;41.50;;;;;;6110350;28;82255;-61
2023/04/11 14:34:53;;;;;;;8.55;3.42;;;23.60;42.00;;;;;;6109574;28;85745;-60
2023/04/11 14:37:55;;;;;;;6.97;3.40;;;23.60;42.20;;;;;;6109867;28;80806;-62
2023/04/11 14:40:56;;;;;;;8.57;3.65;;;23.70;42.60;;;;;;6107517;28;81094;-60
2023/04/11 14:43:56;;;;;;;3.88;3.08;;;23.70;42.30;;;;;;6148151;28;83066;-61
2023/04/11 14:46:57;;;;;;;4.60;3.33;;;23.70;42.60;;;;;;6149464;28;80912;-60
2023/04/11 14:49:57;;;;;;;4.63;3.17;;;23.70;42.80;;;;;;6144778;28;81957;-59
2023/04/11 14:52:58;;;;;;;6.22;3.92;;;23.80;43.00;;;;;;6147486;28;81943;-60
2023/04/11 14:55:59;;;;;;;4.45;3.35;;;23.70;42.80;;;;;;6150017;28;80904;-60
2023/04/11 14:59:00;;;;;;;6.10;4.20;;;23.70;43.00;;;;;;6127409;28;81567;-58
2023/04/11 15:02:01;;;;;;;6.07;3.78;;;23.70;43.20;;;;;;6129526;28;81968;-60
2023/04/11 15:05:02;;;;;;;5.22;3.70;;;23.70;43.30;;;;;;6141546;28;80598;-58
2023/04/11 15:08:02;;;;;;;6.68;4.25;;;23.70;43.00;;;;;;6149861;28;81353;-62
2023/04/11 15:11:03;;;;;;;7.63;3.65;;;23.70;43.20;;;;;;6149611;28;84416;-58
2023/04/11 15:14:03;;;;;;;6.38;4.30;;;23.60;43.30;;;;;;6149279;28;81096;-58
2023/04/11 15:17:04;;;;;;;6.03;3.90;;;23.50;43.60;;;;;;6152571;28;80697;-57
2023/04/11 15:20:05;;;;;;;6.57;4.40;;;23.60;44.10;;;;;;6152330;28;81210;-64
2023/04/11 15:23:06;;;;;;;6.15;3.78;;;23.60;44.00;;;;;;6152754;28;80751;-65
2023/04/11 15:26:07;;;;;;;5.40;3.38;;;23.70;44.20;;;;;;6151224;28;80592;-61
2023/04/11 15:29:07;;;;;;;4.22;3.30;;;23.70;44.50;;;;;;6150948;28;80958;-63
2023/04/11 15:32:08;;;;;;;4.53;3.92;;;23.70;44.60;;;;;;6152638;28;80766;-63
2023/04/11 15:35:08;;;;;;;5.13;3.70;;;23.70;44.80;;;;;;6151474;28;80681;-63
2023/04/11 15:38:09;;;;;;;5.65;3.83;;;23.70;45.00;;;;;;6151866;28;80778;-63
2023/04/11 15:41:09;;;;;;;4.35;3.20;;;23.80;45.10;;;;;;6151733;28;81412;-62